sensor_id;sensor_type;location;lat;lon;timestamp;pressure;altitude;pressure_sealevel;temperature;humidity
80242;BME280;69556;45.004;7.532;2023-12-20T00:02:05;98621.75;;;3.47;85.49
80242;BME280;69556;45.004;7.532;2023-12-20T00:04:30;98617.41;;;3.49;85.34
80242;BME280;69556;45.004;7.532;2023-12-20T00:06:55;98627.84;;;3.48;84.86
80242;BME280;69556;45.004;7.532;2023-12-20T00:09:21;98614.78;;;3.54;84.69
80242;BME280;69556;45.004;7.532;2023-12-20T00:11:46;98613.00;;;3.58;85.65
80242;BME280;69556;45.004;7.532;2023-12-20T00:14:11;98607.84;;;3.45;85.44
80242;BME280;69556;45.004;7.532;2023-12-20T00:16:37;98607.81;;;3.54;86.14
80242;BME280;69556;45.004;7.532;2023-12-20T00:19:02;98601.72;;;3.54;86.16
80242;BME280;69556;45.004;7.532;2023-12-20T00:21:27;98596.56;;;3.45;85.93
80242;BME280;69556;45.004;7.532;2023-12-20T00:23:52;98589.63;;;3.39;85.58
80242;BME280;69556;45.004;7.532;2023-12-20T00:26:18;98583.53;;;3.37;85.91
80242;BME280;69556;45.004;7.532;2023-12-20T00:28:43;98580.94;;;3.37;87.04
80242;BME280;69556;45.004;7.532;2023-12-20T00:31:09;98578.38;;;3.30;86.08
80242;BME280;69556;45.004;7.532;2023-12-20T00:33:34;98575.78;;;3.25;86.44
80242;BME280;69556;45.004;7.532;2023-12-20T00:36:00;98563.66;;;3.17;86.79
80242;BME280;69556;45.004;7.532;2023-12-20T00:38:25;98564.56;;;3.08;87.32
80242;BME280;69556;45.004;7.532;2023-12-20T00:40:51;98568.94;;;3.06;87.05
80242;BME280;69556;45.004;7.532;2023-12-20T00:43:16;98568.88;;;3.17;89.40
80242;BME280;69556;45.004;7.532;2023-12-20T00:45:41;98567.97;;;3.24;89.85
80242;BME280;69556;45.004;7.532;2023-12-20T00:48:07;98558.41;;;3.23;89.35
80242;BME280;69556;45.004;7.532;2023-12-20T00:50:32;98549.69;;;3.22;89.22
80242;BME280;69556;45.004;7.532;2023-12-20T00:52:57;98553.22;;;3.21;89.40
80242;BME280;69556;45.004;7.532;2023-12-20T00:55:23;98542.75;;;3.23;89.39
80242;BME280;69556;45.004;7.532;2023-12-20T00:57:48;98542.81;;;3.17;89.60
80242;BME280;69556;45.004;7.532;2023-12-20T01:00:14;98535.03;;;3.06;89.20
80242;BME280;69556;45.004;7.532;2023-12-20T01:02:40;98537.63;;;3.06;90.08
80242;BME280;69556;45.004;7.532;2023-12-20T01:05:05;98535.09;;;2.91;90.09
80242;BME280;69556;45.004;7.532;2023-12-20T01:07:32;98535.97;;;2.90;90.30
80242;BME280;69556;45.004;7.532;2023-12-20T01:09:58;98535.97;;;2.91;90.55
80242;BME280;69556;45.004;7.532;2023-12-20T01:12:23;98535.13;;;2.82;90.04
80242;BME280;69556;45.004;7.532;2023-12-20T01:14:48;98532.59;;;2.68;89.47
80242;BME280;69556;45.004;7.532;2023-12-20T01:17:14;98534.34;;;2.63;89.97
80242;BME280;69556;45.004;7.532;2023-12-20T01:19:39;98523.09;;;2.52;89.09
80242;BME280;69556;45.004;7.532;2023-12-20T01:22:04;98519.63;;;2.45;89.65
80242;BME280;69556;45.004;7.532;2023-12-20T01:24:30;98504.88;;;2.41;90.44
80242;BME280;69556;45.004;7.532;2023-12-20T01:26:55;98497.94;;;2.34;90.09
80242;BME280;69556;45.004;7.532;2023-12-20T01:29:20;98493.59;;;2.35;90.83
80242;BME280;69556;45.004;7.532;2023-12-20T01:31:46;98494.44;;;2.43;91.97
80242;BME280;69556;45.004;7.532;2023-12-20T01:34:12;98510.94;;;2.49;92.12
80242;BME280;69556;45.004;7.532;2023-12-20T01:36:37;98503.06;;;2.57;91.51
80242;BME280;69556;45.004;7.532;2023-12-20T01:39:02;98520.41;;;2.73;91.02
80242;BME280;69556;45.004;7.532;2023-12-20T01:41:28;98516.91;;;2.76;89.86
80242;BME280;69556;45.004;7.532;2023-12-20T01:43:53;98523.00;;;2.78;89.72
80242;BME280;69556;45.004;7.532;2023-12-20T01:46:19;98531.69;;;2.77;89.86
80242;BME280;69556;45.004;7.532;2023-12-20T01:48:45;98522.16;;;2.66;89.72
80242;BME280;69556;45.004;7.532;2023-12-20T01:51:10;98516.94;;;2.66;90.43
80242;BME280;69556;45.004;7.532;2023-12-20T01:53:36;98512.66;;;2.61;90.09
80242;BME280;69556;45.004;7.532;2023-12-20T01:56:02;98519.59;;;2.57;90.02
80242;BME280;69556;45.004;7.532;2023-12-20T01:58:28;98510.88;;;2.67;89.88
80242;BME280;69556;45.004;7.532;2023-12-20T02:00:54;98504.75;;;2.79;90.13
80242;BME280;69556;45.004;7.532;2023-12-20T02:03:20;98511.66;;;2.86;90.07
80242;BME280;69556;45.004;7.532;2023-12-20T02:05:47;98504.69;;;2.91;89.95
80242;BME280;69556;45.004;7.532;2023-12-20T02:08:13;98506.41;;;2.92;89.83
80242;BME280;69556;45.004;7.532;2023-12-20T02:10:38;98489.00;;;2.96;90.24
80242;BME280;69556;45.004;7.532;2023-12-20T02:13:05;98494.25;;;2.91;89.63
80242;BME280;69556;45.004;7.532;2023-12-20T02:15:31;98492.50;;;2.95;90.20
80242;BME280;69556;45.004;7.532;2023-12-20T02:17:56;98480.34;;;2.91;89.81
80242;BME280;69556;45.004;7.532;2023-12-20T02:20:22;98472.56;;;2.88;89.74
80242;BME280;69556;45.004;7.532;2023-12-20T02:22:47;98475.16;;;2.85;89.49
80242;BME280;69556;45.004;7.532;2023-12-20T02:25:12;98480.34;;;2.89;89.24
80242;BME280;69556;45.004;7.532;2023-12-20T02:27:39;98476.88;;;2.90;89.12
80242;BME280;69556;45.004;7.532;2023-12-20T02:30:05;98477.69;;;3.00;88.33
80242;BME280;69556;45.004;7.532;2023-12-20T02:32:31;98471.56;;;3.08;87.82
80242;BME280;69556;45.004;7.532;2023-12-20T02:34:57;98478.47;;;3.17;87.64
80242;BME280;69556;45.004;7.532;2023-12-20T02:37:22;98470.63;;;3.20;87.18
80242;BME280;69556;45.004;7.532;2023-12-20T02:39:48;98464.53;;;3.21;86.58
80242;BME280;69556;45.004;7.532;2023-12-20T02:42:13;98473.25;;;3.16;85.75
80242;BME280;69556;45.004;7.532;2023-12-20T02:44:38;98461.94;;;3.21;84.79
80242;BME280;69556;45.004;7.532;2023-12-20T02:47:04;98449.72;;;3.23;85.31
80242;BME280;69556;45.004;7.532;2023-12-20T02:49:29;98452.34;;;3.23;85.05
80242;BME280;69556;45.004;7.532;2023-12-20T02:51:54;98451.47;;;3.24;85.67
80242;BME280;69556;45.004;7.532;2023-12-20T02:54:20;98448.00;;;3.24;84.95
80242;BME280;69556;45.004;7.532;2023-12-20T02:56:45;98435.81;;;3.24;85.25
80242;BME280;69556;45.004;7.532;2023-12-20T02:59:11;98441.94;;;3.22;85.58
80242;BME280;69556;45.004;7.532;2023-12-20T03:01:41;98435.81;;;3.23;85.47
80242;BME280;69556;45.004;7.532;2023-12-20T03:04:07;98433.31;;;3.09;85.32
80242;BME280;69556;45.004;7.532;2023-12-20T03:06:32;98432.44;;;3.12;84.24
80242;BME280;69556;45.004;7.532;2023-12-20T03:08:58;98421.19;;;3.06;85.32
80242;BME280;69556;45.004;7.532;2023-12-20T03:11:26;98413.34;;;3.06;85.29
80242;BME280;69556;45.004;7.532;2023-12-20T03:13:52;98412.53;;;2.95;85.67
80242;BME280;69556;45.004;7.532;2023-12-20T03:16:17;98411.66;;;3.01;85.47
80242;BME280;69556;45.004;7.532;2023-12-20T03:18:42;98416.88;;;2.95;85.36
80242;BME280;69556;45.004;7.532;2023-12-20T03:21:07;98406.53;;;2.87;86.51
80242;BME280;69556;45.004;7.532;2023-12-20T03:23:33;98401.34;;;2.84;87.36
80242;BME280;69556;45.004;7.532;2023-12-20T03:26:01;98405.63;;;2.90;87.03
80242;BME280;69556;45.004;7.532;2023-12-20T03:28:27;98403.00;;;2.94;86.71
80242;BME280;69556;45.004;7.532;2023-12-20T03:30:52;98397.81;;;2.93;86.01
80242;BME280;69556;45.004;7.532;2023-12-20T03:33:18;98396.94;;;2.91;85.83
80242;BME280;69556;45.004;7.532;2023-12-20T03:35:43;98405.59;;;2.94;86.27
80242;BME280;69556;45.004;7.532;2023-12-20T03:38:09;98409.06;;;2.95;86.51
80242;BME280;69556;45.004;7.532;2023-12-20T03:40:34;98411.66;;;3.01;86.89
80242;BME280;69556;45.004;7.532;2023-12-20T03:43:00;98407.28;;;3.04;87.46
80242;BME280;69556;45.004;7.532;2023-12-20T03:45:25;98399.41;;;3.12;87.03
80242;BME280;69556;45.004;7.532;2023-12-20T03:47:50;98398.44;;;3.22;84.51
80242;BME280;69556;45.004;7.532;2023-12-20T03:50:21;98401.88;;;3.29;83.58
80242;BME280;69556;45.004;7.532;2023-12-20T03:52:47;98388.91;;;3.18;85.72
80242;BME280;69556;45.004;7.532;2023-12-20T03:55:12;98381.13;;;3.17;86.51
80242;BME280;69556;45.004;7.532;2023-12-20T03:57:38;98375.03;;;3.13;87.61
80242;BME280;69556;45.004;7.532;2023-12-20T04:00:03;98382.00;;;3.14;86.97
80242;BME280;69556;45.004;7.532;2023-12-20T04:02:29;98395.00;;;3.22;86.19
80242;BME280;69556;45.004;7.532;2023-12-20T04:04:54;98381.94;;;3.22;85.24
80242;BME280;69556;45.004;7.532;2023-12-20T04:07:19;98376.66;;;3.28;84.64
80242;BME280;69556;45.004;7.532;2023-12-20T04:09:45;98374.97;;;3.24;85.27
80242;BME280;69556;45.004;7.532;2023-12-20T04:12:10;98381.06;;;3.24;84.13
80242;BME280;69556;45.004;7.532;2023-12-20T04:14:35;98366.28;;;3.23;84.82
80242;BME280;69556;45.004;7.532;2023-12-20T04:17:01;98359.47;;;3.07;85.37
80242;BME280;69556;45.004;7.532;2023-12-20T04:19:26;98371.59;;;3.13;86.23
80242;BME280;69556;45.004;7.532;2023-12-20T04:21:51;98359.47;;;3.05;85.76
80242;BME280;69556;45.004;7.532;2023-12-20T04:24:17;98349.00;;;3.12;85.23
80242;BME280;69556;45.004;7.532;2023-12-20T04:26:42;98329.91;;;3.05;85.68
80242;BME280;69556;45.004;7.532;2023-12-20T04:29:07;98350.78;;;3.05;86.07
80242;BME280;69556;45.004;7.532;2023-12-20T04:31:33;98349.94;;;3.01;86.64
80242;BME280;69556;45.004;7.532;2023-12-20T04:33:58;98347.31;;;3.07;86.04
80242;BME280;69556;45.004;7.532;2023-12-20T04:36:24;98348.13;;;3.11;85.47
80242;BME280;69556;45.004;7.532;2023-12-20T04:38:51;98341.19;;;3.08;85.39
80242;BME280;69556;45.004;7.532;2023-12-20T04:41:17;98343.81;;;3.07;85.31
80242;BME280;69556;45.004;7.532;2023-12-20T04:43:47;98339.47;;;3.07;85.71
80242;BME280;69556;45.004;7.532;2023-12-20T04:46:12;98341.19;;;3.10;86.31
80242;BME280;69556;45.004;7.532;2023-12-20T04:48:37;98336.88;;;3.06;86.31
80242;BME280;69556;45.004;7.532;2023-12-20T04:51:03;98352.47;;;3.12;86.58
80242;BME280;69556;45.004;7.532;2023-12-20T04:53:28;98344.66;;;3.12;86.61
80242;BME280;69556;45.004;7.532;2023-12-20T04:55:53;98346.44;;;3.07;86.20
80242;BME280;69556;45.004;7.532;2023-12-20T04:58:19;98343.81;;;3.04;86.80
80242;BME280;69556;45.004;7.532;2023-12-20T05:00:44;98344.69;;;3.07;87.00
80242;BME280;69556;45.004;7.532;2023-12-20T05:03:09;98319.44;;;3.13;85.44
80242;BME280;69556;45.004;7.532;2023-12-20T05:05:35;98320.28;;;3.13;86.14
80242;BME280;69556;45.004;7.532;2023-12-20T05:08:00;98323.72;;;3.18;85.97
80242;BME280;69556;45.004;7.532;2023-12-20T05:10:26;98313.31;;;3.17;86.41
80242;BME280;69556;45.004;7.532;2023-12-20T05:12:52;98307.28;;;3.08;87.18
80242;BME280;69556;45.004;7.532;2023-12-20T05:15:17;98299.50;;;3.05;87.45
80242;BME280;69556;45.004;7.532;2023-12-20T05:17:42;98296.91;;;3.04;87.10
80242;BME280;69556;45.004;7.532;2023-12-20T05:20:08;98286.47;;;3.04;86.78
80242;BME280;69556;45.004;7.532;2023-12-20T05:22:33;98288.25;;;3.02;87.21
80242;BME280;69556;45.004;7.532;2023-12-20T05:24:59;98291.69;;;3.04;86.75
80242;BME280;69556;45.004;7.532;2023-12-20T05:27:24;98296.88;;;3.07;87.03
80242;BME280;69556;45.004;7.532;2023-12-20T05:29:49;98281.25;;;3.07;86.30
80242;BME280;69556;45.004;7.532;2023-12-20T05:32:15;98285.47;;;3.19;87.36
80242;BME280;69556;45.004;7.532;2023-12-20T05:34:41;98293.28;;;3.19;86.70
80242;BME280;69556;45.004;7.532;2023-12-20T05:37:06;98289.72;;;3.27;87.26
80242;BME280;69556;45.004;7.532;2023-12-20T05:39:31;98281.75;;;3.41;88.27
80242;BME280;69556;45.004;7.532;2023-12-20T05:41:57;98271.28;;;3.47;88.26
80242;BME280;69556;45.004;7.532;2023-12-20T05:44:22;98281.81;;;3.38;87.77
80242;BME280;69556;45.004;7.532;2023-12-20T05:46:47;98278.22;;;3.48;88.01
80242;BME280;69556;45.004;7.532;2023-12-20T05:49:13;98275.56;;;3.52;86.77
80242;BME280;69556;45.004;7.532;2023-12-20T05:51:39;98274.69;;;3.52;86.23
80242;BME280;69556;45.004;7.532;2023-12-20T05:54:04;98268.56;;;3.58;86.26
80242;BME280;69556;45.004;7.532;2023-12-20T05:56:29;98276.38;;;3.59;86.42
80242;BME280;69556;45.004;7.532;2023-12-20T05:58:54;98287.66;;;3.60;86.27
80242;BME280;69556;45.004;7.532;2023-12-20T06:01:20;98296.44;;;3.51;86.97
80242;BME280;69556;45.004;7.532;2023-12-20T06:03:45;98284.25;;;3.54;87.19
80242;BME280;69556;45.004;7.532;2023-12-20T06:06:13;98274.75;;;3.47;87.45
80242;BME280;69556;45.004;7.532;2023-12-20T06:08:39;98284.41;;;3.36;87.51
80242;BME280;69556;45.004;7.532;2023-12-20T06:11:04;98280.97;;;3.34;87.76
80242;BME280;69556;45.004;7.532;2023-12-20T06:13:30;98276.63;;;3.35;88.51
80242;BME280;69556;45.004;7.532;2023-12-20T06:15:56;98287.88;;;3.37;88.29
80242;BME280;69556;45.004;7.532;2023-12-20T06:18:22;98289.63;;;3.39;88.10
80242;BME280;69556;45.004;7.532;2023-12-20T06:20:47;98285.13;;;3.50;88.19
80242;BME280;69556;45.004;7.532;2023-12-20T06:23:12;98277.31;;;3.50;88.54
80242;BME280;69556;45.004;7.532;2023-12-20T06:25:38;98273.81;;;3.54;88.73
80242;BME280;69556;45.004;7.532;2023-12-20T06:28:03;98259.00;;;3.57;89.13
80242;BME280;69556;45.004;7.532;2023-12-20T06:30:28;98257.13;;;3.66;89.10
80242;BME280;69556;45.004;7.532;2023-12-20T06:32:54;98264.06;;;3.69;88.78
80242;BME280;69556;45.004;7.532;2023-12-20T06:35:22;98264.97;;;3.68;88.80
80242;BME280;69556;45.004;7.532;2023-12-20T06:37:47;98274.53;;;3.64;88.70
80242;BME280;69556;45.004;7.532;2023-12-20T06:40:13;98277.25;;;3.58;88.79
80242;BME280;69556;45.004;7.532;2023-12-20T06:42:38;98273.88;;;3.47;88.62
80242;BME280;69556;45.004;7.532;2023-12-20T06:45:04;98277.44;;;3.38;88.03
80242;BME280;69556;45.004;7.532;2023-12-20T06:47:29;98281.00;;;3.31;87.82
80242;BME280;69556;45.004;7.532;2023-12-20T06:49:55;98283.72;;;3.21;88.20
80242;BME280;69556;45.004;7.532;2023-12-20T06:52:20;98293.34;;;3.16;88.96
80242;BME280;69556;45.004;7.532;2023-12-20T06:54:45;98290.69;;;3.19;88.61
80242;BME280;69556;45.004;7.532;2023-12-20T06:57:11;98285.50;;;3.16;89.06
80242;BME280;69556;45.004;7.532;2023-12-20T06:59:40;98290.72;;;3.14;89.21
80242;BME280;69556;45.004;7.532;2023-12-20T07:02:05;98294.13;;;3.25;89.83
80242;BME280;69556;45.004;7.532;2023-12-20T07:04:31;98285.34;;;3.32;89.47
80242;BME280;69556;45.004;7.532;2023-12-20T07:06:56;98283.53;;;3.39;89.80
80242;BME280;69556;45.004;7.532;2023-12-20T07:09:25;98285.22;;;3.43;89.43
80242;BME280;69556;45.004;7.532;2023-12-20T07:11:50;98282.56;;;3.46;89.48
80242;BME280;69556;45.004;7.532;2023-12-20T07:14:16;98273.88;;;3.47;89.75
80242;BME280;69556;45.004;7.532;2023-12-20T07:16:41;98290.34;;;3.53;89.73
80242;BME280;69556;45.004;7.532;2023-12-20T07:19:06;98290.34;;;3.53;89.78
80242;BME280;69556;45.004;7.532;2023-12-20T07:21:32;98288.69;;;3.45;89.38
80242;BME280;69556;45.004;7.532;2023-12-20T07:23:57;98291.41;;;3.34;89.10
80242;BME280;69556;45.004;7.532;2023-12-20T07:26:22;98281.03;;;3.27;89.29
80242;BME280;69556;45.004;7.532;2023-12-20T07:28:48;98284.50;;;3.30;89.71
80242;BME280;69556;45.004;7.532;2023-12-20T07:31:15;98282.69;;;3.37;89.65
80242;BME280;69556;45.004;7.532;2023-12-20T07:33:41;98273.09;;;3.39;90.00
80242;BME280;69556;45.004;7.532;2023-12-20T07:36:06;98277.31;;;3.50;89.44
80242;BME280;69556;45.004;7.532;2023-12-20T07:38:32;98298.13;;;3.55;89.41
80242;BME280;69556;45.004;7.532;2023-12-20T07:40:58;98284.25;;;3.51;89.45
80242;BME280;69556;45.004;7.532;2023-12-20T07:43:23;98285.91;;;3.60;89.29
80242;BME280;69556;45.004;7.532;2023-12-20T07:45:48;98292.81;;;3.67;88.85
80242;BME280;69556;45.004;7.532;2023-12-20T07:48:14;98306.78;;;3.62;88.69
80242;BME280;69556;45.004;7.532;2023-12-20T07:50:39;98307.84;;;3.44;88.71
80242;BME280;69556;45.004;7.532;2023-12-20T07:53:04;98300.09;;;3.33;89.04
80242;BME280;69556;45.004;7.532;2023-12-20T07:55:30;98301.91;;;3.28;89.05
80242;BME280;69556;45.004;7.532;2023-12-20T07:57:57;98308.03;;;3.24;89.86
80242;BME280;69556;45.004;7.532;2023-12-20T08:00:23;98307.16;;;3.25;90.07
80242;BME280;69556;45.004;7.532;2023-12-20T08:02:48;98294.13;;;3.25;90.35
80242;BME280;69556;45.004;7.532;2023-12-20T08:05:14;98302.81;;;3.26;90.38
80242;BME280;69556;45.004;7.532;2023-12-20T08:07:39;98319.28;;;3.29;90.38
80242;BME280;69556;45.004;7.532;2023-12-20T08:10:05;98306.31;;;3.22;90.46
80242;BME280;69556;45.004;7.532;2023-12-20T08:12:31;98312.44;;;3.16;90.88
80242;BME280;69556;45.004;7.532;2023-12-20T08:14:56;98305.53;;;3.12;90.74
80242;BME280;69556;45.004;7.532;2023-12-20T08:17:22;98312.41;;;3.18;90.93
80242;BME280;69556;45.004;7.532;2023-12-20T08:19:48;98322.75;;;3.28;91.24
80242;BME280;69556;45.004;7.532;2023-12-20T08:22:14;98321.84;;;3.32;90.74
80242;BME280;69556;45.004;7.532;2023-12-20T08:24:39;98313.09;;;3.39;90.45
80242;BME280;69556;45.004;7.532;2023-12-20T08:27:05;98327.00;;;3.40;91.05
80242;BME280;69556;45.004;7.532;2023-12-20T08:29:30;98327.16;;;3.23;90.31
80242;BME280;69556;45.004;7.532;2023-12-20T08:31:56;98338.53;;;3.16;90.93
80242;BME280;69556;45.004;7.532;2023-12-20T08:34:22;98331.63;;;3.12;91.27
80242;BME280;69556;45.004;7.532;2023-12-20T08:36:50;98338.53;;;3.16;91.32
80242;BME280;69556;45.004;7.532;2023-12-20T08:39:16;98342.75;;;3.28;90.58
80242;BME280;69556;45.004;7.532;2023-12-20T08:41:41;98344.41;;;3.38;90.32
80242;BME280;69556;45.004;7.532;2023-12-20T08:44:07;98346.97;;;3.44;90.33
80242;BME280;69556;45.004;7.532;2023-12-20T08:46:32;98340.84;;;3.49;90.19
80242;BME280;69556;45.004;7.532;2023-12-20T08:48:57;98332.91;;;3.57;89.86
80242;BME280;69556;45.004;7.532;2023-12-20T08:51:23;98327.66;;;3.62;89.47
80242;BME280;69556;45.004;7.532;2023-12-20T08:53:51;98322.38;;;3.68;89.73
80242;BME280;69556;45.004;7.532;2023-12-20T08:56:16;98340.50;;;3.78;90.22
80242;BME280;69556;45.004;7.532;2023-12-20T08:58:43;98336.97;;;3.84;89.28
80242;BME280;69556;45.004;7.532;2023-12-20T09:01:08;98331.63;;;3.94;89.57
80242;BME280;69556;45.004;7.532;2023-12-20T09:03:34;98339.41;;;4.01;89.13
80242;BME280;69556;45.004;7.532;2023-12-20T09:05:59;98330.88;;;3.85;89.21
80242;BME280;69556;45.004;7.532;2023-12-20T09:08:25;98335.28;;;3.78;89.29
80242;BME280;69556;45.004;7.532;2023-12-20T09:10:50;98343.97;;;3.80;89.48
80242;BME280;69556;45.004;7.532;2023-12-20T09:13:16;98330.78;;;3.92;89.19
80242;BME280;69556;45.004;7.532;2023-12-20T09:15:41;98328.06;;;4.02;88.88
80242;BME280;69556;45.004;7.532;2023-12-20T09:18:06;98332.31;;;4.10;88.89
80242;BME280;69556;45.004;7.532;2023-12-20T09:20:32;98335.88;;;4.02;88.74
80242;BME280;69556;45.004;7.532;2023-12-20T09:22:58;98338.38;;;4.11;88.79
80242;BME280;69556;45.004;7.532;2023-12-20T09:25:23;98339.25;;;4.14;88.65
80242;BME280;69556;45.004;7.532;2023-12-20T09:27:49;98334.72;;;4.25;88.39
80242;BME280;69556;45.004;7.532;2023-12-20T09:30:14;98342.53;;;4.28;87.96
80242;BME280;69556;45.004;7.532;2023-12-20T09:32:39;98350.38;;;4.28;87.52
80242;BME280;69556;45.004;7.532;2023-12-20T09:35:05;98346.84;;;4.29;87.74
80242;BME280;69556;45.004;7.532;2023-12-20T09:37:31;98339.94;;;4.28;87.45
80242;BME280;69556;45.004;7.532;2023-12-20T09:39:57;98340.63;;;4.39;87.31
80242;BME280;69556;45.004;7.532;2023-12-20T09:45:14;98326.56;;;4.50;87.40
80242;BME280;69556;45.004;7.532;2023-12-20T09:47:43;98331.59;;;4.63;87.02
80242;BME280;69556;45.004;7.532;2023-12-20T09:50:08;98338.44;;;4.72;86.73
80242;BME280;69556;45.004;7.532;2023-12-20T09:52:36;98333.03;;;4.84;86.98
80242;BME280;69556;45.004;7.532;2023-12-20T09:55:03;98333.91;;;4.84;86.18
80242;BME280;69556;45.004;7.532;2023-12-20T09:57:32;98339.88;;;4.94;85.51
80242;BME280;69556;45.004;7.532;2023-12-20T09:59:57;98336.34;;;4.95;84.23
80242;BME280;69556;45.004;7.532;2023-12-20T10:02:24;98345.75;;;5.08;84.75
80242;BME280;69556;45.004;7.532;2023-12-20T10:04:52;98331.75;;;5.09;85.34
80242;BME280;69556;45.004;7.532;2023-12-20T10:07:17;98341.97;;;5.26;84.70
80242;BME280;69556;45.004;7.532;2023-12-20T10:09:44;98339.28;;;5.29;84.36
80242;BME280;69556;45.004;7.532;2023-12-20T10:12:09;98325.16;;;5.38;84.25
80242;BME280;69556;45.004;7.532;2023-12-20T10:14:35;98310.34;;;5.38;84.28
80242;BME280;69556;45.004;7.532;2023-12-20T10:17:04;98321.31;;;5.60;83.72
80242;BME280;69556;45.004;7.532;2023-12-20T10:19:29;98309.66;;;5.74;83.29
80242;BME280;69556;45.004;7.532;2023-12-20T10:21:55;98317.31;;;5.84;84.08
80242;BME280;69556;45.004;7.532;2023-12-20T10:24:20;98313.66;;;5.95;82.30
80242;BME280;69556;45.004;7.532;2023-12-20T10:26:46;98309.88;;;6.08;82.34
80242;BME280;69556;45.004;7.532;2023-12-20T10:29:11;98307.88;;;6.21;82.08
80242;BME280;69556;45.004;7.532;2023-12-20T10:31:37;98298.91;;;6.33;81.20
80242;BME280;69556;45.004;7.532;2023-12-20T10:34:04;98279.50;;;6.40;79.72
80242;BME280;69556;45.004;7.532;2023-12-20T10:36:33;98280.16;;;6.49;79.09
80242;BME280;69556;45.004;7.532;2023-12-20T10:38:59;98274.00;;;6.52;80.95
80242;BME280;69556;45.004;7.532;2023-12-20T10:41:27;98265.34;;;6.48;81.85
80242;BME280;69556;45.004;7.532;2023-12-20T10:44:01;98273.13;;;6.51;82.12
80242;BME280;69556;45.004;7.532;2023-12-20T10:46:30;98248.59;;;6.54;82.78
80242;BME280;69556;45.004;7.532;2023-12-20T10:48:57;98260.81;;;6.55;83.26
80242;BME280;69556;45.004;7.532;2023-12-20T10:51:24;98260.84;;;6.53;82.94
80242;BME280;69556;45.004;7.532;2023-12-20T10:53:52;98257.44;;;6.50;82.21
80242;BME280;69556;45.004;7.532;2023-12-20T10:56:18;98253.06;;;6.49;82.01
80242;BME280;69556;45.004;7.532;2023-12-20T10:58:45;98253.84;;;6.54;82.42
80242;BME280;69556;45.004;7.532;2023-12-20T11:01:16;98272.78;;;6.67;80.96
80242;BME280;69556;45.004;7.532;2023-12-20T11:03:52;98262.13;;;6.73;79.02
80242;BME280;69556;45.004;7.532;2023-12-20T11:06:37;98259.28;;;6.83;79.20
80242;BME280;69556;45.004;7.532;2023-12-20T11:14:31;98246.28;;;7.13;77.29
80242;BME280;69556;45.004;7.532;2023-12-20T11:17:09;98229.44;;;7.21;77.08
80242;BME280;69556;45.004;7.532;2023-12-20T11:22:24;98219.53;;;7.32;75.83
80242;BME280;69556;45.004;7.532;2023-12-20T11:24:51;98209.72;;;7.39;76.11
80242;BME280;69556;45.004;7.532;2023-12-20T11:27:18;98210.47;;;7.42;75.94
80242;BME280;69556;45.004;7.532;2023-12-20T11:29:51;98214.81;;;7.45;75.82
80242;BME280;69556;45.004;7.532;2023-12-20T11:34:56;98195.66;;;7.41;77.80
80242;BME280;69556;45.004;7.532;2023-12-20T11:37:22;98200.91;;;7.41;78.56
80242;BME280;69556;45.004;7.532;2023-12-20T11:39:55;98192.34;;;7.33;80.05
80242;BME280;69556;45.004;7.532;2023-12-20T11:42:21;98183.88;;;7.24;80.89
80242;BME280;69556;45.004;7.532;2023-12-20T11:44:47;98181.47;;;7.15;80.15
80242;BME280;69556;45.004;7.532;2023-12-20T11:47:13;98183.44;;;7.08;79.82
80242;BME280;69556;45.004;7.532;2023-12-20T11:49:39;98188.13;;;6.95;79.98
80242;BME280;69556;45.004;7.532;2023-12-20T11:52:05;98186.56;;;6.88;80.90
80242;BME280;69556;45.004;7.532;2023-12-20T11:54:31;98172.81;;;6.79;82.00
80242;BME280;69556;45.004;7.532;2023-12-20T11:56:56;98167.47;;;6.82;82.26
80242;BME280;69556;45.004;7.532;2023-12-20T11:59:21;98178.69;;;6.88;81.12
80242;BME280;69556;45.004;7.532;2023-12-20T12:01:50;98173.34;;;6.91;80.72
80242;BME280;69556;45.004;7.532;2023-12-20T12:04:16;98164.34;;;7.01;82.28
80242;BME280;69556;45.004;7.532;2023-12-20T12:06:43;98158.97;;;7.06;83.28
80242;BME280;69556;45.004;7.532;2023-12-20T12:09:08;98150.94;;;7.12;82.61
80242;BME280;69556;45.004;7.532;2023-12-20T12:11:34;98146.63;;;7.09;83.65
80242;BME280;69556;45.004;7.532;2023-12-20T12:14:00;98144.94;;;7.08;82.29
80242;BME280;69556;45.004;7.532;2023-12-20T12:16:26;98139.72;;;7.07;80.57
80242;BME280;69556;45.004;7.532;2023-12-20T12:18:58;98137.94;;;7.09;80.48
80242;BME280;69556;45.004;7.532;2023-12-20T12:21:24;98132.56;;;7.14;80.42
80242;BME280;69556;45.004;7.532;2023-12-20T12:23:49;98128.84;;;7.21;80.79
80242;BME280;69556;45.004;7.532;2023-12-20T12:26:15;98118.94;;;7.30;80.62
80242;BME280;69556;45.004;7.532;2023-12-20T12:28:41;98128.31;;;7.39;79.09
80242;BME280;69556;45.004;7.532;2023-12-20T12:31:13;98119.44;;;7.43;78.32
80242;BME280;69556;45.004;7.532;2023-12-20T12:33:40;98121.94;;;7.47;79.21
80242;BME280;69556;45.004;7.532;2023-12-20T12:36:07;98124.41;;;7.53;80.61
80242;BME280;69556;45.004;7.532;2023-12-20T12:38:33;98111.88;;;7.62;80.60
80242;BME280;69556;45.004;7.532;2023-12-20T12:41:00;98103.72;;;7.71;79.28
80242;BME280;69556;45.004;7.532;2023-12-20T12:43:26;98104.19;;;7.85;79.21
80242;BME280;69556;45.004;7.532;2023-12-20T12:45:51;98102.88;;;7.98;78.84
80242;BME280;69556;45.004;7.532;2023-12-20T12:48:17;98100.97;;;8.03;77.87
80242;BME280;69556;45.004;7.532;2023-12-20T12:50:42;98099.00;;;8.11;76.39
80242;BME280;69556;45.004;7.532;2023-12-20T12:53:08;98089.03;;;8.21;75.21
80242;BME280;69556;45.004;7.532;2023-12-20T12:55:34;98083.97;;;8.15;75.01
80242;BME280;69556;45.004;7.532;2023-12-20T12:58:00;98076.72;;;8.21;75.60
80242;BME280;69556;45.004;7.532;2023-12-20T13:00:26;98080.94;;;8.27;73.92
80242;BME280;69556;45.004;7.532;2023-12-20T13:02:51;98068.50;;;8.33;74.97
80242;BME280;69556;45.004;7.532;2023-12-20T13:05:16;98081.97;;;8.49;74.54
80242;BME280;69556;45.004;7.532;2023-12-20T13:07:43;98061.00;;;8.48;74.12
80242;BME280;69556;45.004;7.532;2023-12-20T13:10:10;98067.56;;;8.61;75.83
80242;BME280;69556;45.004;7.532;2023-12-20T13:12:35;98063.75;;;8.69;73.32
80242;BME280;69556;45.004;7.532;2023-12-20T13:15:03;98072.22;;;8.77;72.99
80242;BME280;69556;45.004;7.532;2023-12-20T13:17:34;98067.41;;;8.90;74.13